Time;durP1;ratioP1;P1;durP2;ratioP2;P2;SDS_P1;SDS_P2;PMS_P1;PMS_P2;Temp;Humidity;BMP_temperature;BMP_pressure;BME280_temperature;BME280_humidity;BME280_pressure;Samples;Min_cycle;Max_cycle;Signal;HPM_P1;HPM_P2
2022/06/11 00:01:29;;;;;;;92.45;40.00;;;22.90;59.50;;;;;;5033296;28;20107;-76
2022/06/11 00:03:59;;;;;;;81.65;38.35;;;22.90;59.60;;;;;;5026945;28;20022;-76
2022/06/11 00:06:27;;;;;;;84.50;38.78;;;22.90;59.70;;;;;;5032311;28;20120;-76
2022/06/11 00:08:53;;;;;;;79.18;37.67;;;22.90;59.70;;;;;;5030357;28;20032;-75
2022/06/11 00:11:20;;;;;;;76.18;37.35;;;22.90;59.70;;;;;;5031308;28;20115;-77
2022/06/11 00:13:47;;;;;;;85.60;38.97;;;22.90;59.80;;;;;;5029358;28;20486;-76
2022/06/11 00:16:14;;;;;;;71.95;35.42;;;22.90;59.90;;;;;;5015029;28;20029;-76
2022/06/11 00:18:42;;;;;;;82.90;36.38;;;22.90;59.90;;;;;;5032969;28;20029;-76
2022/06/11 00:21:09;;;;;;;83.47;36.28;;;22.90;59.90;;;;;;5031478;28;20120;-74
2022/06/11 00:23:35;;;;;;;77.05;37.15;;;22.90;59.90;;;;;;5032809;28;20025;-75
2022/06/11 00:26:03;;;;;;;77.93;36.22;;;22.90;59.80;;;;;;5032466;28;20026;-75
2022/06/11 00:28:29;;;;;;;70.90;35.05;;;22.90;59.80;;;;;;5033661;28;20032;-74
2022/06/11 00:30:58;;;;;;;72.43;34.67;;;23.00;59.80;;;;;;5032096;28;20029;-74
2022/06/11 00:33:23;;;;;;;72.13;34.97;;;23.00;59.70;;;;;;5032079;28;20072;-74
2022/06/11 00:35:51;;;;;;;63.45;29.73;;;23.00;59.60;;;;;;5029445;28;20425;-74
2022/06/11 00:38:17;;;;;;;57.60;29.83;;;22.90;58.90;;;;;;5023320;28;20100;-74
2022/06/11 00:40:46;;;;;;;54.10;25.63;;;22.90;58.90;;;;;;5028261;28;20022;-74
2022/06/11 00:43:17;;;;;;;58.40;26.63;;;22.80;58.60;;;;;;5031669;28;20381;-74
2022/06/11 00:49:49;;;;;;;46.38;19.85;;;22.80;58.20;;;;;;5032098;28;20037;-73
2022/06/11 00:52:53;;;;;;;39.47;18.15;;;22.80;57.80;;;;;;5017535;28;20394;-73
2022/06/11 00:55:36;;;;;;;40.53;19.02;;;22.90;57.90;;;;;;5016221;28;20438;-73
2022/06/11 00:58:14;;;;;;;43.97;19.30;;;22.80;57.90;;;;;;5021453;28;20485;-73
2022/06/11 01:00:47;;;;;;;43.25;19.85;;;22.80;57.90;;;;;;5011422;28;20402;-73
2022/06/11 01:03:17;;;;;;;47.20;21.70;;;22.80;58.00;;;;;;4994859;28;20054;-73
2022/06/11 01:05:48;;;;;;;42.97;19.55;;;22.80;58.20;;;;;;5013656;28;20037;-73
2022/06/11 01:08:51;;;;;;;43.40;19.92;;;22.80;58.10;;;;;;5029274;28;20449;-73
2022/06/11 01:11:53;;;;;;;41.30;19.08;;;22.80;58.00;;;;;;5021935;28;20052;-73
2022/06/11 01:14:46;;;;;;;42.92;19.63;;;22.80;58.00;;;;;;5023460;28;20033;-73
2022/06/11 01:17:28;;;;;;;41.20;18.65;;;22.80;58.20;;;;;;5028623;28;20069;-73
2022/06/11 01:20:09;;;;;;;40.67;17.63;;;22.80;58.00;;;;;;5028694;28;20052;-73
2022/06/11 01:22:49;;;;;;;38.78;17.35;;;22.80;58.10;;;;;;5029693;28;20045;-73
2022/06/11 01:25:21;;;;;;;35.80;17.17;;;22.80;58.10;;;;;;5031235;28;20079;-73
2022/06/11 01:28:10;;;;;;;35.08;17.42;;;22.80;58.10;;;;;;5030609;28;20394;-73
2022/06/11 01:30:45;;;;;;;39.37;16.93;;;22.90;58.20;;;;;;5026884;28;20044;-73
2022/06/11 01:33:11;;;;;;;39.92;17.40;;;22.80;58.10;;;;;;5028923;28;20557;-72
2022/06/11 01:35:58;;;;;;;35.03;16.05;;;22.80;58.10;;;;;;5028781;28;20037;-73
2022/06/11 01:38:37;;;;;;;38.28;17.83;;;22.80;58.30;;;;;;5030273;28;20029;-73
2022/06/11 01:41:27;;;;;;;37.58;16.88;;;22.80;58.50;;;;;;5029066;28;20025;-73
2022/06/11 01:43:58;;;;;;;40.15;17.15;;;22.80;58.60;;;;;;5028824;28;20398;-73
2022/06/11 01:46:29;;;;;;;37.00;17.15;;;22.80;58.40;;;;;;5028699;28;20028;-73
2022/06/11 01:49:23;;;;;;;31.58;15.65;;;22.80;58.80;;;;;;5029114;28;20021;-73
2022/06/11 01:51:58;;;;;;;28.60;14.40;;;22.80;58.80;;;;;;5028761;28;20059;-73
2022/06/11 01:54:48;;;;;;;28.60;13.48;;;22.80;58.30;;;;;;5013299;28;20109;-73
2022/06/11 01:57:41;;;;;;;31.77;14.10;;;22.80;58.20;;;;;;5028882;28;20033;-73
2022/06/11 02:00:23;;;;;;;32.53;14.63;;;22.80;58.40;;;;;;5031083;28;20113;-73
2022/06/11 02:03:21;;;;;;;30.40;14.60;;;22.80;58.70;;;;;;5026590;28;20022;-73
2022/06/11 02:06:37;;;;;;;30.45;12.93;;;22.80;58.60;;;;;;5022264;28;20489;-73
2022/06/11 02:09:26;;;;;;;30.20;14.15;;;22.80;58.70;;;;;;4988851;28;20030;-73
2022/06/11 02:12:11;;;;;;;27.05;12.55;;;22.80;58.80;;;;;;5020755;28;20061;-73
2022/06/11 02:15:05;;;;;;;27.08;13.07;;;22.80;58.80;;;;;;5031153;28;20135;-73
2022/06/11 02:17:35;;;;;;;23.83;10.98;;;22.80;58.50;;;;;;5019726;28;20544;-73
2022/06/11 02:20:13;;;;;;;25.58;11.45;;;22.80;58.10;;;;;;5028004;28;20029;-73
2022/06/11 02:22:58;;;;;;;20.75;10.68;;;22.80;58.00;;;;;;5029335;28;20288;-73
2022/06/11 02:25:39;;;;;;;23.65;10.93;;;22.80;58.00;;;;;;5029628;28;20466;-73
2022/06/11 02:28:10;;;;;;;22.45;10.52;;;22.80;57.90;;;;;;5012519;28;20026;-73
2022/06/11 02:30:39;;;;;;;20.98;10.40;;;22.80;58.30;;;;;;5028938;28;20543;-73
2022/06/11 02:33:12;;;;;;;24.00;11.07;;;22.80;58.60;;;;;;5029447;28;20548;-73
2022/06/11 02:35:46;;;;;;;25.35;10.95;;;22.80;58.90;;;;;;5029567;28;20029;-73
2022/06/11 02:38:15;;;;;;;22.85;10.15;;;22.80;58.40;;;;;;5029246;28;20421;-73
2022/06/11 02:40:45;;;;;;;21.50;10.37;;;22.80;58.40;;;;;;5029853;28;20084;-73
2022/06/11 02:43:11;;;;;;;23.67;10.70;;;22.80;58.50;;;;;;5030714;28;20437;-73
2022/06/11 02:45:37;;;;;;;22.92;10.93;;;22.80;58.50;;;;;;5029642;28;20080;-73
2022/06/11 02:48:04;;;;;;;22.98;10.82;;;22.80;58.70;;;;;;5030642;28;20063;-73
2022/06/11 02:50:32;;;;;;;20.17;9.48;;;22.80;58.80;;;;;;5032542;28;20444;-74
2022/06/11 02:53:00;;;;;;;22.27;9.80;;;22.80;58.70;;;;;;5033228;28;20029;-74
2022/06/11 02:55:27;;;;;;;23.13;9.27;;;22.70;58.70;;;;;;5032156;28;20032;-74
2022/06/11 02:57:53;;;;;;;24.33;8.85;;;22.80;58.70;;;;;;5032047;28;20032;-74
2022/06/11 03:00:24;;;;;;;22.02;9.02;;;22.80;58.80;;;;;;5032557;28;20025;-73
2022/06/11 03:02:50;;;;;;;18.98;8.75;;;22.80;58.70;;;;;;5034177;28;20026;-73
2022/06/11 03:05:19;;;;;;;20.15;8.77;;;22.80;58.80;;;;;;5032249;28;20104;-73
2022/06/11 03:07:45;;;;;;;16.45;8.55;;;22.80;58.80;;;;;;5032210;28;20028;-73
2022/06/11 03:10:15;;;;;;;19.38;8.18;;;22.80;58.70;;;;;;5033753;28;20329;-73
2022/06/11 03:12:41;;;;;;;17.08;7.90;;;22.70;58.60;;;;;;5031577;28;20022;-73
2022/06/11 03:15:07;;;;;;;15.43;7.28;;;22.80;59.30;;;;;;5033953;28;20092;-73
2022/06/11 03:17:33;;;;;;;14.65;7.13;;;22.80;58.70;;;;;;5032848;28;20475;-73
2022/06/11 03:20:00;;;;;;;20.27;7.65;;;22.80;58.60;;;;;;5033347;28;20066;-73
2022/06/11 03:22:26;;;;;;;17.67;7.55;;;22.80;58.40;;;;;;5026253;28;20375;-74
2022/06/11 03:24:52;;;;;;;15.93;6.63;;;22.80;58.20;;;;;;4999109;28;20029;-74
2022/06/11 03:27:19;;;;;;;15.15;7.38;;;22.80;58.00;;;;;;5033262;28;20049;-74
2022/06/11 03:29:46;;;;;;;15.88;7.18;;;22.80;58.30;;;;;;5034184;28;20025;-73
2022/06/11 03:32:11;;;;;;;20.77;7.07;;;22.80;58.60;;;;;;5031484;28;20022;-74
2022/06/11 03:34:38;;;;;;;16.27;6.97;;;22.70;59.00;;;;;;5030164;28;20536;-73
2022/06/11 03:37:04;;;;;;;17.08;6.55;;;22.80;58.40;;;;;;5033971;28;20394;-73
2022/06/11 03:39:31;;;;;;;14.50;7.00;;;22.70;58.70;;;;;;5030013;28;20040;-74
2022/06/11 03:41:57;;;;;;;20.75;7.35;;;22.70;58.50;;;;;;5029198;28;20112;-74
2022/06/11 03:44:24;;;;;;;14.27;6.25;;;22.80;58.60;;;;;;5032529;28;20025;-74
2022/06/11 03:46:50;;;;;;;14.90;6.60;;;22.80;58.60;;;;;;5031040;28;20029;-74
2022/06/11 03:49:17;;;;;;;13.93;6.18;;;22.70;58.70;;;;;;5024958;28;20027;-74
2022/06/11 03:51:44;;;;;;;11.50;5.65;;;22.70;58.80;;;;;;5029961;28;20037;-74
2022/06/11 03:54:11;;;;;;;12.27;5.55;;;22.70;58.70;;;;;;5033001;28;20032;-74
2022/06/11 03:56:38;;;;;;;11.85;5.18;;;22.70;58.60;;;;;;5029181;28;20037;-74
2022/06/11 03:59:06;;;;;;;13.23;6.40;;;22.70;58.70;;;;;;5031594;28;20040;-74
2022/06/11 04:01:33;;;;;;;13.93;5.82;;;22.70;58.70;;;;;;5032531;28;20021;-74
2022/06/11 04:04:03;;;;;;;13.85;5.32;;;22.70;58.50;;;;;;5032052;28;20022;-74
2022/06/11 04:06:51;;;;;;;12.02;5.63;;;22.70;58.70;;;;;;5032042;28;20014;-74
2022/06/11 04:09:23;;;;;;;12.25;5.45;;;22.70;58.70;;;;;;5028704;28;20037;-74
2022/06/11 04:11:49;;;;;;;11.55;5.07;;;22.80;58.60;;;;;;5031928;28;20030;-74
2022/06/11 04:14:16;;;;;;;13.30;5.63;;;22.80;58.60;;;;;;5031046;28;20021;-74
2022/06/11 04:16:46;;;;;;;14.95;5.20;;;22.80;58.10;;;;;;5032803;28;20478;-74
2022/06/11 04:19:17;;;;;;;11.88;4.70;;;22.80;58.00;;;;;;5030875;28;20025;-74
2022/06/11 04:21:44;;;;;;;9.07;4.88;;;22.80;58.20;;;;;;5031720;28;20033;-74
2022/06/11 04:24:10;;;;;;;11.63;4.13;;;22.80;58.00;;;;;;5029829;28;20456;-73
2022/06/11 04:26:41;;;;;;;11.90;4.80;;;22.80;58.20;;;;;;5032746;28;20025;-74
2022/06/11 04:29:09;;;;;;;11.45;4.75;;;22.80;58.40;;;;;;5030618;28;20032;-73
2022/06/11 04:31:35;;;;;;;11.13;4.57;;;22.80;58.50;;;;;;5032663;28;20478;-74
2022/06/11 04:34:02;;;;;;;11.18;4.70;;;22.80;58.70;;;;;;5032078;28;20026;-74
2022/06/11 04:36:31;;;;;;;8.27;4.55;;;22.70;58.40;;;;;;5031039;28;20033;-74
2022/06/11 04:38:56;;;;;;;9.00;4.75;;;22.80;58.50;;;;;;5031325;28;20033;-74
2022/06/11 04:41:23;;;;;;;10.45;4.90;;;22.70;58.30;;;;;;5032525;28;20032;-74
2022/06/11 04:43:49;;;;;;;9.75;4.20;;;22.70;58.40;;;;;;5031312;28;20109;-74
2022/06/11 04:46:15;;;;;;;9.95;4.28;;;22.70;58.50;;;;;;5029517;28;20021;-73
2022/06/11 04:48:42;;;;;;;11.38;4.60;;;22.70;58.50;;;;;;5030101;28;20485;-73
2022/06/11 04:51:09;;;;;;;9.38;4.05;;;22.80;58.40;;;;;;5030766;28;20456;-73
2022/06/11 04:53:35;;;;;;;9.63;3.83;;;22.70;58.30;;;;;;5031376;28;20029;-73
2022/06/11 04:56:01;;;;;;;8.07;3.80;;;22.70;58.40;;;;;;5029915;28;20025;-73
2022/06/11 04:58:27;;;;;;;10.52;4.18;;;22.70;58.50;;;;;;5031858;28;20021;-73
2022/06/11 05:00:53;;;;;;;8.32;3.60;;;22.70;58.50;;;;;;5031235;28;20109;-73
2022/06/11 05:03:19;;;;;;;10.43;4.10;;;22.70;58.50;;;;;;5030213;28;20096;-73
2022/06/11 05:05:45;;;;;;;8.98;4.00;;;22.70;58.50;;;;;;5031169;28;20026;-73
2022/06/11 05:08:13;;;;;;;10.73;4.20;;;22.70;58.40;;;;;;5031612;28;20037;-73
2022/06/11 05:10:40;;;;;;;10.57;3.63;;;22.70;58.40;;;;;;5012575;28;20029;-73
2022/06/11 05:13:07;;;;;;;10.52;3.88;;;22.70;58.30;;;;;;5031929;28;20123;-73
2022/06/11 05:15:34;;;;;;;7.03;3.42;;;22.70;58.00;;;;;;5032235;28;20418;-73
2022/06/11 05:18:01;;;;;;;10.02;3.70;;;22.80;58.20;;;;;;5029014;28;20042;-73
2022/06/11 05:20:27;;;;;;;9.63;3.50;;;22.80;58.00;;;;;;5027836;28;20021;-73
2022/06/11 05:22:52;;;;;;;7.55;3.60;;;22.70;58.00;;;;;;5031841;28;20324;-73
2022/06/11 05:25:19;;;;;;;7.95;3.45;;;22.80;58.00;;;;;;5029245;28;20022;-73
2022/06/11 05:27:46;;;;;;;7.20;3.28;;;22.70;58.00;;;;;;5031490;28;20531;-73
2022/06/11 05:30:23;;;;;;;9.50;3.70;;;22.80;58.20;;;;;;5029589;28;20475;-73
2022/06/11 05:32:50;;;;;;;7.60;3.60;;;22.80;58.30;;;;;;5029625;28;20033;-73
2022/06/11 05:35:22;;;;;;;8.43;3.70;;;22.80;58.50;;;;;;5023287;28;20405;-73
2022/06/11 05:37:50;;;;;;;7.47;3.53;;;22.70;58.50;;;;;;5030930;28;20033;-73
2022/06/11 05:40:19;;;;;;;7.43;3.63;;;22.80;58.40;;;;;;5028988;28;20021;-73
2022/06/11 05:42:47;;;;;;;10.20;3.77;;;22.80;58.50;;;;;;5013756;28;20562;-74
2022/06/11 05:45:20;;;;;;;8.25;3.50;;;22.70;58.30;;;;;;5029204;28;20053;-74
2022/06/11 05:47:47;;;;;;;9.00;3.63;;;22.70;58.50;;;;;;5027770;28;20375;-74
2022/06/11 05:50:23;;;;;;;9.88;3.28;;;22.70;58.50;;;;;;5011229;28;20108;-74
2022/06/11 05:52:48;;;;;;;7.95;3.28;;;22.80;58.50;;;;;;5029962;28;20076;-73
2022/06/11 05:55:18;;;;;;;10.35;3.58;;;22.70;58.40;;;;;;5031159;28;20033;-73
2022/06/11 05:57:47;;;;;;;6.00;2.92;;;22.80;58.50;;;;;;5029647;28;20040;-73
2022/06/11 06:00:15;;;;;;;7.70;3.00;;;22.80;58.40;;;;;;5031229;28;20026;-73
2022/06/11 06:02:42;;;;;;;7.03;3.13;;;22.80;58.50;;;;;;5027265;28;20091;-73
2022/06/11 06:05:11;;;;;;;6.90;3.08;;;22.80;58.50;;;;;;5011074;28;20539;-73
2022/06/11 06:07:37;;;;;;;8.45;3.55;;;22.70;58.40;;;;;;5028457;28;20040;-73
2022/06/11 06:10:03;;;;;;;7.53;3.15;;;22.80;58.30;;;;;;5011756;28;20026;-73
2022/06/11 06:12:37;;;;;;;7.80;2.78;;;22.80;58.30;;;;;;5028822;28;20557;-73
2022/06/11 06:15:05;;;;;;;8.40;3.00;;;22.70;58.30;;;;;;5024107;28;20060;-73
2022/06/11 06:17:30;;;;;;;7.45;2.90;;;22.80;58.30;;;;;;5011388;28;20117;-73
2022/06/11 06:19:56;;;;;;;6.53;2.90;;;22.80;57.90;;;;;;5031321;28;20109;-73
2022/06/11 06:22:22;;;;;;;8.75;3.08;;;22.80;58.00;;;;;;5029661;28;20028;-72
2022/06/11 06:24:48;;;;;;;7.13;3.00;;;22.80;58.20;;;;;;5034218;28;20072;-72
2022/06/11 06:27:14;;;;;;;6.32;3.00;;;22.80;58.40;;;;;;5037223;28;20017;-72
2022/06/11 06:29:40;;;;;;;6.63;3.30;;;22.80;58.20;;;;;;5035606;28;20052;-72
2022/06/11 06:32:06;;;;;;;7.35;3.05;;;22.80;58.30;;;;;;5035874;28;20021;-73
2022/06/11 06:34:31;;;;;;;7.53;2.70;;;22.80;58.40;;;;;;5035222;28;20033;-73
2022/06/11 06:36:57;;;;;;;6.30;2.80;;;22.80;58.20;;;;;;5035189;28;20033;-72
2022/06/11 06:39:23;;;;;;;7.22;2.90;;;22.80;58.40;;;;;;5033744;28;20036;-73
2022/06/11 06:41:49;;;;;;;5.82;2.83;;;22.80;58.10;;;;;;5034733;28;20521;-72
2022/06/11 06:44:16;;;;;;;7.30;2.75;;;22.80;58.30;;;;;;5036204;28;20079;-74
2022/06/11 06:46:42;;;;;;;7.57;2.78;;;22.80;58.30;;;;;;5035236;28;20025;-73
2022/06/11 06:49:08;;;;;;;6.72;2.95;;;22.80;58.40;;;;;;5036918;28;20029;-73
2022/06/11 06:51:35;;;;;;;8.30;3.28;;;22.70;58.20;;;;;;5035470;28;20517;-73
2022/06/11 06:54:02;;;;;;;6.35;2.60;;;22.80;58.30;;;;;;5037219;28;20057;-74
2022/06/11 06:56:33;;;;;;;9.57;3.38;;;22.70;58.30;;;;;;5034408;28;20037;-72
2022/06/11 06:59:04;;;;;;;8.52;2.90;;;22.80;58.40;;;;;;5035568;28;20056;-72
2022/06/11 07:01:30;;;;;;;5.72;2.70;;;22.80;58.20;;;;;;5032990;28;20085;-73
2022/06/11 07:03:57;;;;;;;5.90;2.80;;;22.70;58.30;;;;;;5029144;28;20026;-73
2022/06/11 07:06:24;;;;;;;5.30;2.65;;;22.80;58.20;;;;;;5035471;28;20013;-73
2022/06/11 07:08:51;;;;;;;8.10;3.05;;;22.80;58.30;;;;;;5034436;28;20132;-73
2022/06/11 07:11:17;;;;;;;8.00;2.80;;;22.80;58.20;;;;;;5031224;28;20048;-73
2022/06/11 07:13:43;;;;;;;5.78;2.90;;;22.80;58.30;;;;;;5035015;28;20033;-71
2022/06/11 07:16:09;;;;;;;7.18;2.67;;;22.80;58.00;;;;;;5036067;28;20039;-74
2022/06/11 07:18:50;;;;;;;8.38;2.83;;;22.80;57.90;;;;;;5028578;28;20116;-71
2022/06/11 07:21:28;;;;;;;6.90;2.60;;;22.80;57.90;;;;;;5028406;28;20541;-71
2022/06/11 07:24:00;;;;;;;8.73;2.70;;;22.80;58.60;;;;;;5032715;28;20441;-73
2022/06/11 07:26:37;;;;;;;7.43;2.95;;;22.80;58.10;;;;;;5035291;28;20025;-73
2022/06/11 07:29:18;;;;;;;9.40;2.80;;;22.80;58.00;;;;;;5033644;28;20025;-73
2022/06/11 07:31:47;;;;;;;7.57;2.20;;;22.80;58.20;;;;;;5035773;28;20029;-73
2022/06/11 07:34:13;;;;;;;7.75;2.53;;;22.80;58.20;;;;;;5013203;28;20036;-73
2022/06/11 07:36:40;;;;;;;9.50;3.00;;;22.80;58.20;;;;;;5026332;28;20079;-73
2022/06/11 07:39:05;;;;;;;10.40;3.00;;;22.80;58.20;;;;;;5031532;28;20485;-73
2022/06/11 07:41:31;;;;;;;5.82;2.40;;;22.80;58.10;;;;;;5028188;28;20061;-73
2022/06/11 07:43:57;;;;;;;5.50;2.65;;;22.80;58.10;;;;;;5031288;28;20486;-73
2022/06/11 07:46:23;;;;;;;6.47;2.55;;;22.80;58.30;;;;;;5029531;28;20478;-73
2022/06/11 07:48:49;;;;;;;6.68;2.67;;;22.80;58.20;;;;;;5031685;28;20511;-73
2022/06/11 07:51:19;;;;;;;6.47;2.90;;;22.80;58.10;;;;;;5033329;28;20041;-73
2022/06/11 07:53:46;;;;;;;;;;;22.80;58.10;;;;;;5031713;28;20405;-73
2022/06/11 07:56:12;;;;;;;9.15;2.63;;;22.80;58.20;;;;;;5027525;28;20066;-73
2022/06/11 07:58:39;;;;;;;7.45;2.70;;;22.80;58.20;;;;;;5029321;28;20025;-73
2022/06/11 08:01:07;;;;;;;5.25;2.50;;;22.80;58.20;;;;;;5030283;28;20022;-73
2022/06/11 08:03:37;;;;;;;8.48;2.80;;;22.80;58.20;;;;;;5029944;28;20115;-73
2022/06/11 08:06:05;;;;;;;6.45;2.58;;;22.80;58.30;;;;;;5028288;28;20029;-73
2022/06/11 08:08:31;;;;;;;8.70;2.75;;;22.90;58.30;;;;;;5030997;28;20029;-73
2022/06/11 08:10:59;;;;;;;5.57;2.20;;;22.80;58.30;;;;;;5029358;28;20038;-73
2022/06/11 08:13:25;;;;;;;7.65;2.65;;;22.90;58.30;;;;;;5031613;28;20022;-72
2022/06/11 08:15:53;;;;;;;9.23;2.72;;;22.90;58.20;;;;;;5027021;28;20069;-73
2022/06/11 08:18:20;;;;;;;11.70;2.95;;;22.90;58.80;;;;;;5031501;28;20031;-73
2022/06/11 08:20:47;;;;;;;7.45;2.40;;;22.90;58.20;;;;;;5029468;28;20026;-72
2022/06/11 08:23:13;;;;;;;6.35;2.58;;;22.90;58.20;;;;;;5031857;28;20482;-73
2022/06/11 08:25:39;;;;;;;7.97;2.90;;;22.90;58.20;;;;;;5027840;28;20026;-73
2022/06/11 08:28:06;;;;;;;6.63;2.83;;;22.90;58.10;;;;;;5031592;28;20087;-73
2022/06/11 08:30:33;;;;;;;7.95;2.67;;;22.90;58.10;;;;;;5031199;28;20029;-73
2022/06/11 08:32:59;;;;;;;7.85;3.10;;;22.90;58.20;;;;;;5032441;28;20389;-73
2022/06/11 08:35:28;;;;;;;8.35;3.10;;;22.90;58.20;;;;;;5014206;28;20393;-72
2022/06/11 08:37:54;;;;;;;7.47;3.20;;;22.90;58.20;;;;;;5030149;28;20470;-73
2022/06/11 08:40:37;;;;;;;9.05;2.80;;;22.90;58.20;;;;;;5031060;28;20025;-73
2022/06/11 08:43:17;;;;;;;8.90;2.47;;;22.90;58.20;;;;;;5030051;28;20079;-72
2022/06/11 08:45:52;;;;;;;8.68;2.55;;;22.90;58.30;;;;;;5030129;28;20022;-72
2022/06/11 08:48:21;;;;;;;7.13;2.53;;;22.90;58.40;;;;;;5030995;28;20026;-73
2022/06/11 08:51:03;;;;;;;7.80;3.00;;;23.00;58.40;;;;;;5028363;28;20060;-73
2022/06/11 08:53:32;;;;;;;8.43;3.13;;;22.90;58.40;;;;;;5025406;28;20107;-73
2022/06/11 08:55:58;;;;;;;22.25;3.25;;;23.00;58.60;;;;;;5026951;28;20037;-73
2022/06/11 08:58:38;;;;;;;14.70;3.10;;;22.90;58.70;;;;;;5029912;28;20095;-73
2022/06/11 09:01:09;;;;;;;8.40;2.70;;;23.00;59.10;;;;;;5026109;28;20041;-73
2022/06/11 09:03:42;;;;;;;11.02;3.38;;;23.00;59.10;;;;;;5032001;28;20029;-73
2022/06/11 09:06:26;;;;;;;13.68;3.08;;;23.00;58.90;;;;;;5031962;28;20126;-73
2022/06/11 09:09:17;;;;;;;12.70;3.20;;;23.00;59.20;;;;;;5030491;28;20057;-74
2022/06/11 09:12:19;;;;;;;16.15;3.13;;;23.00;59.70;;;;;;5031701;28;20394;-74
2022/06/11 09:14:54;;;;;;;14.68;3.20;;;23.10;59.20;;;;;;5032315;28;20033;-73
2022/06/11 09:17:35;;;;;;;14.05;2.92;;;23.10;59.20;;;;;;5030381;28;20034;-73
2022/06/11 09:20:42;;;;;;;11.75;3.05;;;23.10;57.90;;;;;;5041872;28;20383;-72
2022/06/11 09:23:26;;;;;;;17.25;3.08;;;23.10;58.10;;;;;;5010192;28;20030;-73
2022/06/11 09:26:00;;;;;;;16.48;4.15;;;23.10;58.40;;;;;;5025599;28;20044;-72
2022/06/11 09:29:09;;;;;;;17.67;4.18;;;23.20;58.80;;;;;;5028118;28;20105;-72
2022/06/11 09:31:46;;;;;;;14.80;3.47;;;23.10;59.60;;;;;;5027280;28;20120;-73
2022/06/11 09:34:26;;;;;;;14.35;4.50;;;23.20;59.70;;;;;;5029462;28;20108;-73
2022/06/11 09:37:04;;;;;;;10.52;3.30;;;23.20;60.40;;;;;;5029470;28;20044;-76
2022/06/11 09:39:33;;;;;;;11.00;3.42;;;23.20;60.20;;;;;;5027230;28;20064;-77
2022/06/11 09:42:24;;;;;;;13.80;3.08;;;23.20;60.00;;;;;;5028161;28;20045;-73
2022/06/11 09:45:16;;;;;;;9.13;2.90;;;23.20;60.00;;;;;;5025523;28;20494;-77
2022/06/11 09:47:42;;;;;;;13.68;4.80;;;23.20;59.30;;;;;;5026725;28;20034;-76
2022/06/11 09:50:27;;;;;;;23.25;14.07;;;23.20;58.20;;;;;;5028613;28;20041;-76
2022/06/11 09:53:07;;;;;;;23.70;11.77;;;23.20;57.10;;;;;;5028406;28;20398;-76
2022/06/11 09:55:54;;;;;;;22.27;9.77;;;23.30;58.10;;;;;;5025151;28;20041;-78
2022/06/11 09:58:35;;;;;;;18.05;8.88;;;23.30;58.30;;;;;;5028642;28;20473;-77
2022/06/11 10:01:05;;;;;;;15.88;7.88;;;23.30;57.10;;;;;;5025796;28;20025;-76
2022/06/11 10:03:37;;;;;;;;;;;23.30;56.80;;;;;;5028072;28;20386;-76
2022/06/11 10:06:09;;;;;;;11.80;4.95;;;23.40;55.60;;;;;;5028766;28;20007;-78
2022/06/11 10:08:40;;;;;;;13.93;6.28;;;23.30;55.40;;;;;;5027108;28;20115;-75
2022/06/11 10:11:16;;;;;;;12.15;5.65;;;23.30;56.70;;;;;;5029107;28;20025;-75
2022/06/11 10:14:28;;;;;;;11.32;4.70;;;23.40;55.70;;;;;;5010806;28;20482;-76
2022/06/11 10:16:50;;;;;;;13.32;4.22;;;23.40;55.50;;;;;;5028819;28;20420;-75
2022/06/11 10:19:44;;;;;;;15.57;4.50;;;23.40;55.00;;;;;;5025859;28;20401;-75
2022/06/11 10:22:35;;;;;;;6.68;3.35;;;23.40;54.80;;;;;;5028249;28;20381;-76
2022/06/11 10:25:04;;;;;;;9.23;3.92;;;23.50;54.40;;;;;;5028087;28;20100;-73
2022/06/11 10:27:34;;;;;;;11.45;3.92;;;23.40;54.70;;;;;;5028299;28;20080;-75
2022/06/11 10:30:16;;;;;;;12.00;4.95;;;23.50;54.50;;;;;;5009647;28;20551;-77
2022/06/11 10:32:44;;;;;;;14.57;5.28;;;23.50;56.10;;;;;;5026723;28;20165;-73
2022/06/11 10:35:10;;;;;;;12.57;4.20;;;23.50;55.50;;;;;;5025933;28;20024;-74
2022/06/11 10:37:43;;;;;;;15.27;4.68;;;23.50;54.40;;;;;;5028263;28;20022;-74
2022/06/11 10:40:18;;;;;;;15.48;4.70;;;23.50;55.00;;;;;;5026772;28;20048;-73
2022/06/11 10:43:09;;;;;;;10.32;3.47;;;23.50;54.30;;;;;;5027425;28;20093;-73
2022/06/11 10:45:35;;;;;;;8.52;3.15;;;23.50;53.90;;;;;;5026115;28;20037;-73
2022/06/11 10:48:05;;;;;;;11.55;4.20;;;23.50;53.20;;;;;;5025824;28;20030;-73
2022/06/11 10:50:36;;;;;;;15.30;4.20;;;23.40;54.30;;;;;;5028987;28;20049;-72
2022/06/11 10:53:28;;;;;;;6.25;3.15;;;23.40;54.00;;;;;;5027446;28;20029;-72
2022/06/11 10:56:00;;;;;;;6.57;2.55;;;23.40;52.90;;;;;;5023793;28;20063;-73
2022/06/11 10:58:33;;;;;;;12.48;2.95;;;23.50;52.30;;;;;;5022395;28;20029;-73
2022/06/11 11:01:10;;;;;;;7.85;3.30;;;23.40;52.50;;;;;;5022418;28;20033;-72
2022/06/11 11:03:56;;;;;;;7.68;2.78;;;23.40;52.00;;;;;;5022285;28;20041;-73
2022/06/11 11:06:29;;;;;;;7.03;3.17;;;23.40;52.00;;;;;;5027763;28;20022;-73
2022/06/11 11:09:20;;;;;;;9.95;4.82;;;23.40;52.00;;;;;;5026582;28;20427;-73
2022/06/11 11:11:52;;;;;;;15.77;7.80;;;23.40;51.70;;;;;;5021858;28;20075;-73
2022/06/11 11:14:40;;;;;;;11.75;6.20;;;23.40;51.50;;;;;;5033226;28;20021;-73
2022/06/11 11:17:17;;;;;;;13.65;5.30;;;23.40;51.40;;;;;;5013245;28;20033;-73
2022/06/11 11:20:29;;;;;;;10.40;4.90;;;23.40;51.90;;;;;;5029618;28;20053;-74
2022/06/11 11:22:34;;;;;;;15.23;6.38;;;23.40;51.90;;;;;;5013086;28;20411;-74
2022/06/11 11:25:03;;;;;;;15.63;5.22;;;23.40;54.70;;;;;;5013252;28;20088;-74
2022/06/11 11:27:41;;;;;;;19.98;6.63;;;23.50;52.90;;;;;;5028520;28;20587;-74
2022/06/11 11:30:28;;;;;;;245.50;44.63;;;23.50;53.10;;;;;;5032719;28;20065;-73
2022/06/11 11:32:54;;;;;;;127.47;25.10;;;23.50;55.80;;;;;;5034078;28;20026;-74
2022/06/11 11:35:36;;;;;;;152.32;33.58;;;23.50;54.60;;;;;;5032591;28;20385;-73
2022/06/11 11:38:11;;;;;;;164.85;32.35;;;23.50;56.00;;;;;;5033343;28;20490;-74
2022/06/11 11:40:56;;;;;;;138.73;36.15;;;23.50;54.80;;;;;;5030937;28;20055;-75
2022/06/11 11:43:24;;;;;;;122.65;34.42;;;23.50;54.90;;;;;;5029656;28;20021;-75
2022/06/11 11:46:03;;;;;;;109.82;46.70;;;23.50;53.30;;;;;;4999218;28;20034;-75
2022/06/11 11:48:35;;;;;;;102.55;49.03;;;23.40;52.70;;;;;;5025568;28;20482;-76
2022/06/11 11:51:06;;;;;;;99.80;34.63;;;23.40;52.20;;;;;;5028448;28;20045;-75
2022/06/11 11:53:42;;;;;;;95.95;28.42;;;23.50;53.70;;;;;;5029703;28;20029;-76
2022/06/11 11:56:27;;;;;;;86.65;28.23;;;23.50;54.10;;;;;;5015752;28;20037;-76
2022/06/11 11:59:00;;;;;;;72.95;26.33;;;23.60;54.90;;;;;;5030011;28;20036;-76
2022/06/11 12:01:28;;;;;;;71.22;24.83;;;23.60;55.10;;;;;;5033370;28;20488;-75
2022/06/11 12:04:26;;;;;;;64.63;23.75;;;23.60;55.70;;;;;;5031290;28;20041;-76
2022/06/11 12:06:58;;;;;;;52.35;20.23;;;23.60;55.10;;;;;;5026497;28;20041;-75
2022/06/11 12:09:27;;;;;;;50.28;17.88;;;23.60;55.30;;;;;;5031118;28;20033;-76
2022/06/11 12:12:17;;;;;;;46.28;18.10;;;23.60;54.30;;;;;;5030424;28;20107;-76
2022/06/11 12:14:55;;;;;;;49.17;18.40;;;23.60;55.10;;;;;;5031067;28;20052;-75
2022/06/11 12:17:42;;;;;;;42.95;17.75;;;23.60;55.00;;;;;;5028108;28;20036;-75
2022/06/11 12:20:35;;;;;;;39.90;16.52;;;23.60;55.70;;;;;;5029730;28;20064;-75
2022/06/11 12:23:48;;;;;;;38.60;14.90;;;23.60;55.70;;;;;;5028363;28;20044;-75
2022/06/11 12:26:30;;;;;;;34.03;13.05;;;23.60;55.00;;;;;;4985555;28;20037;-75
2022/06/11 12:29:06;;;;;;;28.40;11.18;;;23.60;56.10;;;;;;5029549;28;20052;-75
2022/06/11 12:31:32;;;;;;;22.95;10.10;;;23.60;55.40;;;;;;5031639;28;20037;-76
2022/06/11 12:33:59;;;;;;;25.17;9.90;;;23.60;56.10;;;;;;5031661;28;20132;-75
2022/06/11 12:36:47;;;;;;;26.52;8.82;;;23.60;56.30;;;;;;5030807;28;20013;-76
2022/06/11 12:39:34;;;;;;;25.42;10.35;;;23.60;56.70;;;;;;5032456;28;20030;-76
2022/06/11 12:42:19;;;;;;;19.58;9.20;;;23.60;56.70;;;;;;5030107;28;20025;-74
2022/06/11 12:45:01;;;;;;;26.27;10.45;;;23.60;56.90;;;;;;5031137;28;20500;-72
2022/06/11 12:47:47;;;;;;;28.08;11.05;;;23.60;57.10;;;;;;5016732;28;20018;-72
2022/06/11 12:50:48;;;;;;;25.23;12.23;;;23.50;57.10;;;;;;5030301;28;20022;-72
2022/06/11 12:53:23;;;;;;;468.52;106.72;;;23.50;56.50;;;;;;5031384;28;20033;-70
2022/06/11 12:55:54;;;;;;;495.52;134.88;;;23.60;58.00;;;;;;5028500;23;20057;-77
2022/06/11 12:58:57;;;;;;;483.00;116.22;;;23.50;57.30;;;;;;4984303;28;20045;-76
2022/06/11 13:01:37;;;;;;;453.25;114.43;;;23.60;57.30;;;;;;5009062;28;20032;-76
2022/06/11 13:04:06;;;;;;;342.25;84.20;;;23.60;58.20;;;;;;4989758;28;20046;-75
2022/06/11 13:06:57;;;;;;;274.35;67.18;;;23.60;57.60;;;;;;4985782;28;20176;-74
2022/06/11 13:09:47;;;;;;;279.90;70.47;;;23.60;57.70;;;;;;5007751;28;20038;-75
2022/06/11 13:12:42;;;;;;;216.00;51.83;;;23.60;58.50;;;;;;4979614;28;20514;-70